createdAt,value
2023-04-12T00:01:33.688Z,3.30
2023-04-12T00:04:03.827Z,5.97
2023-04-12T00:06:33.355Z,3.73
2023-04-12T00:09:01.295Z,4.23
2023-04-12T00:11:29.441Z,4.80
2023-04-12T00:13:58.787Z,6.80
2023-04-12T00:16:28.226Z,3.73
2023-04-12T00:18:57.408Z,3.57
2023-04-12T00:21:28.815Z,3.10
2023-04-12T00:23:56.954Z,3.77
2023-04-12T00:26:25.580Z,2.80
2023-04-12T00:28:53.342Z,4.27
2023-04-12T00:31:22.486Z,3.10
2023-04-12T00:33:50.297Z,7.33
2023-04-12T00:36:18.434Z,2.67
2023-04-12T00:38:46.804Z,3.33
2023-04-12T00:41:14.799Z,3.83
2023-04-12T00:43:43.059Z,5.13
2023-04-12T00:46:11.719Z,4.10
2023-04-12T00:48:41.070Z,3.67
2023-04-12T00:51:09.312Z,2.20
2023-04-12T00:53:39.218Z,3.00
2023-04-12T00:56:11.879Z,1.87
2023-04-12T00:58:39.759Z,1.97
2023-04-12T01:01:07.884Z,2.50
2023-04-12T01:03:43.343Z,3.03
2023-04-12T01:06:17.447Z,4.40
2023-04-12T01:08:55.211Z,3.90
2023-04-12T01:11:32.314Z,4.47
2023-04-12T01:14:08.173Z,2.63
2023-04-12T01:16:44.523Z,1.83
2023-04-12T01:19:34.222Z,2.13
2023-04-12T01:22:27.910Z,2.60
2023-04-12T01:25:05.672Z,3.23
2023-04-12T01:27:40.771Z,2.43
2023-04-12T01:30:12.195Z,4.27
2023-04-12T01:32:41.416Z,2.57
2023-04-12T01:35:11.297Z,2.43
2023-04-12T01:37:39.544Z,1.77
2023-04-12T01:40:09.304Z,3.23
2023-04-12T01:42:39.732Z,1.50
2023-04-12T01:45:08.914Z,1.60
2023-04-12T01:47:36.974Z,1.63
2023-04-12T01:50:17.949Z,2.50
2023-04-12T01:52:53.950Z,3.07
2023-04-12T01:55:23.092Z,3.20
2023-04-12T01:57:54.561Z,2.87
2023-04-12T02:00:23.482Z,1.20
2023-04-12T02:02:52.011Z,1.50
2023-04-12T02:05:20.429Z,2.17
2023-04-12T02:07:49.839Z,1.23
2023-04-12T02:10:17.779Z,1.50
2023-04-12T02:12:45.626Z,2.83
2023-04-12T02:15:16.179Z,1.33
2023-04-12T02:20:14.218Z,3.17
2023-04-12T02:22:41.979Z,1.60
2023-04-12T02:25:09.971Z,1.20
2023-04-12T02:27:37.779Z,1.90
2023-04-12T02:30:06.995Z,1.53
2023-04-12T02:32:43.990Z,2.40
2023-04-12T02:35:12.520Z,1.00
2023-04-12T02:37:41.215Z,2.97
2023-04-12T02:40:11.701Z,1.27
2023-04-12T02:42:40.491Z,1.90
2023-04-12T02:45:09.158Z,1.97
2023-04-12T02:47:38.576Z,0.90
2023-04-12T02:50:07.798Z,0.80
2023-04-12T02:52:35.605Z,3.03
2023-04-12T02:55:03.884Z,2.10
2023-04-12T02:57:31.799Z,1.40
2023-04-12T02:59:59.621Z,1.07
2023-04-12T03:02:27.915Z,2.27
2023-04-12T03:04:57.271Z,2.50
2023-04-12T03:07:25.216Z,2.03
2023-04-12T03:09:53.535Z,2.40
2023-04-12T03:12:21.334Z,2.17
2023-04-12T03:14:49.158Z,1.53
2023-04-12T03:17:16.938Z,2.00
2023-04-12T03:19:44.759Z,2.13
2023-04-12T03:22:13.889Z,3.53
2023-04-12T03:24:42.971Z,2.17
2023-04-12T03:27:10.793Z,2.60
2023-04-12T03:29:38.720Z,1.33
2023-04-12T03:32:06.689Z,3.17
2023-04-12T03:34:34.673Z,2.30
2023-04-12T03:37:03.222Z,1.17
2023-04-12T03:39:32.402Z,3.20
2023-04-12T03:42:00.312Z,1.23
2023-04-12T03:44:28.131Z,3.80
2023-04-12T03:46:56.325Z,3.57
2023-04-12T03:49:24.233Z,1.70
2023-04-12T03:51:52.454Z,4.50
2023-04-12T03:54:20.261Z,2.60
2023-04-12T03:56:49.396Z,1.23
2023-04-12T03:59:17.165Z,1.30
2023-04-12T04:01:45.319Z,2.20
2023-04-12T04:04:13.434Z,4.03
2023-04-12T04:06:41.820Z,1.40
2023-04-12T04:09:09.724Z,1.50
2023-04-12T04:11:37.840Z,2.90
2023-04-12T04:14:07.443Z,4.27
2023-04-12T04:16:35.288Z,2.73
2023-04-12T04:19:03.164Z,3.50
2023-04-12T04:21:32.204Z,2.30
2023-04-12T04:24:01.238Z,3.40
2023-04-12T04:26:33.730Z,2.53
2023-04-12T04:29:03.390Z,6.43
2023-04-12T04:31:34.486Z,1.93
2023-04-12T04:34:03.719Z,1.83
2023-04-12T04:36:32.303Z,2.37
2023-04-12T04:39:00.108Z,2.07
2023-04-12T04:41:27.998Z,4.43
2023-04-12T04:43:55.901Z,6.03
2023-04-12T04:46:23.792Z,4.60
2023-04-12T04:48:55.278Z,5.23
2023-04-12T04:51:23.106Z,3.30
2023-04-12T04:53:50.863Z,3.80
2023-04-12T04:56:18.615Z,5.17
2023-04-12T04:58:46.524Z,6.33
2023-04-12T05:01:17.058Z,6.93
2023-04-12T05:03:45.868Z,6.13
2023-04-12T05:06:15.135Z,4.00
2023-04-12T05:08:43.348Z,4.93
2023-04-12T05:11:11.120Z,4.27
2023-04-12T05:13:38.984Z,3.63
2023-04-12T05:16:08.957Z,4.80
2023-04-12T05:18:36.934Z,3.93
2023-04-12T05:21:05.613Z,6.73
2023-04-12T05:23:37.111Z,4.67
2023-04-12T05:26:05.274Z,3.73
2023-04-12T05:28:35.290Z,4.57
2023-04-12T05:31:03.516Z,9.23
2023-04-12T05:33:33.377Z,9.00
2023-04-12T05:36:01.725Z,8.57
2023-04-12T05:38:29.603Z,8.00
2023-04-12T05:40:58.769Z,8.03
2023-04-12T05:43:26.590Z,9.40
2023-04-12T05:45:54.382Z,4.27
2023-04-12T05:48:22.819Z,6.80
2023-04-12T05:50:54.574Z,10.20
2023-04-12T05:53:22.500Z,10.73
2023-04-12T05:55:51.700Z,7.63
2023-04-12T05:58:21.051Z,8.40
2023-04-12T06:00:49.618Z,9.33
2023-04-12T06:03:17.845Z,8.33
2023-04-12T06:05:46.176Z,15.73
2023-04-12T06:08:14.899Z,8.17
2023-04-12T06:10:42.730Z,14.83
2023-04-12T06:13:10.558Z,10.37
2023-04-12T06:15:40.928Z,12.73
2023-04-12T06:18:09.105Z,7.10
2023-04-12T06:20:40.101Z,11.00
2023-04-12T06:23:07.924Z,9.13
2023-04-12T06:25:35.778Z,10.43
2023-04-12T06:28:03.507Z,9.27
2023-04-12T06:30:31.526Z,16.20
2023-04-12T06:33:00.769Z,10.97
2023-04-12T06:35:28.618Z,8.83
2023-04-12T06:37:56.456Z,8.67
2023-04-12T06:40:24.404Z,12.33
2023-04-12T06:42:52.314Z,13.33
2023-04-12T06:45:20.279Z,11.80
2023-04-12T06:47:48.433Z,12.17
2023-04-12T06:50:18.531Z,8.90
2023-04-12T06:52:48.388Z,12.47
2023-04-12T06:55:16.437Z,10.87
2023-04-12T06:57:44.667Z,10.97
2023-04-12T07:00:13.653Z,14.93
2023-04-12T07:02:41.633Z,8.40
2023-04-12T07:05:10.233Z,7.77
2023-04-12T07:07:39.401Z,12.70
2023-04-12T07:10:08.554Z,9.07
2023-04-12T07:12:37.033Z,10.97
2023-04-12T07:15:05.926Z,12.53
2023-04-12T07:17:33.918Z,11.67
2023-04-12T07:20:01.735Z,18.37
2023-04-12T07:22:29.566Z,12.10
2023-04-12T07:24:59.030Z,7.70
2023-04-12T07:27:26.864Z,9.17
2023-04-12T07:29:54.682Z,13.03
2023-04-12T07:32:22.794Z,3.77
2023-04-12T07:34:50.756Z,7.43
2023-04-12T07:37:18.983Z,9.47
2023-04-12T07:39:47.027Z,9.70
2023-04-12T07:42:16.338Z,10.33
2023-04-12T07:44:46.031Z,9.93
2023-04-12T07:47:13.852Z,8.80
2023-04-12T07:49:41.654Z,10.80
2023-04-12T07:52:09.471Z,11.30
2023-04-12T07:54:37.291Z,6.40
2023-04-12T07:57:05.412Z,7.37
2023-04-12T07:59:34.591Z,9.67
2023-04-12T08:02:03.187Z,7.70
2023-04-12T08:04:31.245Z,10.97
2023-04-12T08:06:58.985Z,11.07
2023-04-12T08:09:27.156Z,11.63
2023-04-12T08:11:54.830Z,9.33
2023-04-12T08:14:22.677Z,11.87
2023-04-12T08:16:51.926Z,8.63
2023-04-12T08:19:21.038Z,4.27
2023-04-12T08:21:48.840Z,10.13
2023-04-12T08:24:16.670Z,8.23
2023-04-12T08:26:44.803Z,6.90
2023-04-12T08:29:12.678Z,11.70
2023-04-12T08:31:41.036Z,14.47
2023-04-12T08:34:10.298Z,10.40
2023-04-12T08:36:38.045Z,8.37
2023-04-12T08:39:05.828Z,5.17
2023-04-12T08:41:36.076Z,16.30
2023-04-12T08:44:05.461Z,12.97
2023-04-12T08:46:33.367Z,11.50
2023-04-12T08:49:01.256Z,9.93
2023-04-12T08:51:30.518Z,11.20
2023-04-12T08:53:58.500Z,12.47
2023-04-12T08:56:26.595Z,12.10
2023-04-12T08:58:54.925Z,11.00
2023-04-12T09:01:22.810Z,8.47
2023-04-12T09:03:51.154Z,7.33
2023-04-12T09:06:19.019Z,9.97
2023-04-12T09:08:56.296Z,14.13
2023-04-12T09:11:25.866Z,7.80
2023-04-12T09:13:54.961Z,14.20
2023-04-12T09:16:36.292Z,11.27
2023-04-12T09:19:05.325Z,11.40
2023-04-12T09:21:34.680Z,11.07
2023-04-12T09:24:13.593Z,13.80
2023-04-12T09:26:42.379Z,11.13
2023-04-12T09:29:25.082Z,10.53
2023-04-12T09:31:57.524Z,6.50
2023-04-12T09:34:26.592Z,12.37
2023-04-12T09:36:55.723Z,11.37
2023-04-12T09:39:33.683Z,9.27
2023-04-12T09:42:21.482Z,10.70
2023-04-12T09:44:58.746Z,8.67
2023-04-12T09:47:39.755Z,8.93
2023-04-12T09:50:09.796Z,9.93
2023-04-12T09:52:38.688Z,8.67
2023-04-12T09:55:11.537Z,11.13
2023-04-12T09:57:42.107Z,11.80
2023-04-12T10:00:14.334Z,9.67
2023-04-12T10:02:45.557Z,14.37
2023-04-12T10:05:17.037Z,9.80
2023-04-12T10:07:45.829Z,8.60
2023-04-12T10:10:17.684Z,5.30
2023-04-12T10:12:47.234Z,6.33
2023-04-12T10:15:17.879Z,4.37
2023-04-12T10:17:48.107Z,7.17
2023-04-12T10:20:17.226Z,5.37
2023-04-12T10:22:46.683Z,5.97
2023-04-12T10:25:17.605Z,4.80
2023-04-12T10:27:46.690Z,4.73
2023-04-12T10:30:22.979Z,3.57
2023-04-12T10:32:51.702Z,3.67
2023-04-12T10:35:20.187Z,4.17
2023-04-12T10:38:01.961Z,4.97
2023-04-12T10:40:32.440Z,7.77
2023-04-12T10:43:30.137Z,5.23
2023-04-12T10:46:04.121Z,4.33
2023-04-12T10:48:35.869Z,4.07
2023-04-12T10:51:15.218Z,5.83
2023-04-12T10:53:43.292Z,7.17
2023-04-12T10:56:38.518Z,6.03
2023-04-12T10:59:07.797Z,3.30
2023-04-12T11:01:38.989Z,4.37
2023-04-12T11:04:14.086Z,3.17
2023-04-12T11:06:59.032Z,3.67
2023-04-12T11:09:29.589Z,5.30
2023-04-12T11:12:00.553Z,6.67
2023-04-12T11:14:36.277Z,3.13
2023-04-12T11:17:27.086Z,4.87
2023-04-12T11:20:00.337Z,3.60
2023-04-12T11:22:30.953Z,3.53
2023-04-12T11:25:00.623Z,5.97
2023-04-12T11:27:31.890Z,3.60
2023-04-12T11:30:01.268Z,1.30
2023-04-12T11:32:30.767Z,4.27
2023-04-12T11:34:59.745Z,5.57
2023-04-12T11:37:28.055Z,2.10
2023-04-12T11:39:59.028Z,3.93
2023-04-12T11:42:30.508Z,3.10
2023-04-12T11:45:03.175Z,10.90
2023-04-12T11:47:34.899Z,5.07
2023-04-12T11:50:02.878Z,3.70
2023-04-12T11:52:32.299Z,3.77
2023-04-12T11:55:04.797Z,5.33
2023-04-12T11:57:34.762Z,5.73
2023-04-12T12:00:06.255Z,8.13
2023-04-12T12:02:41.185Z,2.20
2023-04-12T12:05:12.331Z,3.23
2023-04-12T12:07:40.876Z,5.00
2023-04-12T12:10:10.436Z,6.00
2023-04-12T12:12:39.715Z,4.93
2023-04-12T12:15:09.502Z,4.20
2023-04-12T12:17:38.813Z,4.13
2023-04-12T12:20:07.776Z,4.83
2023-04-12T12:22:35.706Z,4.77
2023-04-12T12:25:03.510Z,5.73
2023-04-12T12:27:36.259Z,5.60
2023-04-12T12:30:08.056Z,3.20
2023-04-12T12:32:37.916Z,4.43
2023-04-12T12:35:10.674Z,5.30
2023-04-12T12:37:38.440Z,4.53
2023-04-12T12:40:11.615Z,3.33
2023-04-12T12:42:46.877Z,3.10
2023-04-12T12:45:17.189Z,4.30
2023-04-12T12:47:50.196Z,2.53
2023-04-12T12:50:18.852Z,5.20
2023-04-12T12:52:47.514Z,1.63
2023-04-12T12:55:16.438Z,4.07
2023-04-12T12:57:47.920Z,2.47
2023-04-12T13:00:27.033Z,1.27
2023-04-12T13:02:55.983Z,1.43
2023-04-12T13:05:24.300Z,1.40
2023-04-12T13:07:52.133Z,1.87
2023-04-12T13:10:20.326Z,1.27
2023-04-12T13:12:48.122Z,1.30
2023-04-12T13:17:48.231Z,4.10
2023-04-12T13:20:17.107Z,2.00
2023-04-12T13:22:45.042Z,0.80
2023-04-12T13:25:12.847Z,4.27
2023-04-12T13:27:40.694Z,9.73
2023-04-12T13:30:09.471Z,9.60
2023-04-12T13:32:37.360Z,3.63
2023-04-12T13:35:07.264Z,2.47
2023-04-12T13:37:35.625Z,5.10
2023-04-12T13:40:03.914Z,2.13
2023-04-12T13:42:32.156Z,2.70
2023-04-12T13:45:00.030Z,4.83
2023-04-12T13:47:28.533Z,3.67
2023-04-12T13:49:56.318Z,1.27
2023-04-12T13:52:25.592Z,1.90
2023-04-12T13:54:53.429Z,4.73
2023-04-12T13:57:21.417Z,1.67
2023-04-12T13:59:49.197Z,3.47
2023-04-12T14:02:16.925Z,1.27
2023-04-12T14:04:52.237Z,1.50
2023-04-12T14:07:20.645Z,2.00
2023-04-12T14:09:49.927Z,1.27
2023-04-12T14:12:17.725Z,1.40
2023-04-12T14:14:45.811Z,9.87
2023-04-12T14:17:13.653Z,1.53
2023-04-12T14:19:41.395Z,5.13
2023-04-12T14:22:09.181Z,3.90
2023-04-12T14:24:36.992Z,6.40
2023-04-12T14:27:06.167Z,1.60
2023-04-12T14:29:33.915Z,3.87
2023-04-12T14:32:01.619Z,4.60
2023-04-12T14:34:31.041Z,4.47
2023-04-12T14:37:00.443Z,3.80
2023-04-12T14:39:28.565Z,5.33
2023-04-12T14:41:56.966Z,5.90
2023-04-12T14:44:27.282Z,4.17
2023-04-12T14:46:55.494Z,2.33
2023-04-12T14:49:23.436Z,3.37
2023-04-12T14:51:51.208Z,2.70
2023-04-12T14:54:19.168Z,3.50
2023-04-12T14:56:53.529Z,4.40
2023-04-12T14:59:22.734Z,6.93
2023-04-12T15:01:53.208Z,4.10
2023-04-12T15:04:21.405Z,4.30
2023-04-12T15:06:49.406Z,4.50
2023-04-12T15:09:17.750Z,6.83
2023-04-12T15:11:46.781Z,3.37
2023-04-12T15:14:18.164Z,3.40
2023-04-12T15:16:49.139Z,2.60
2023-04-12T15:19:22.762Z,3.43
2023-04-12T15:21:52.181Z,10.20
2023-04-12T15:24:20.852Z,6.10
2023-04-12T15:26:51.576Z,10.67
2023-04-12T15:29:21.322Z,3.90
2023-04-12T15:31:49.488Z,5.30
2023-04-12T15:34:18.927Z,7.30
2023-04-12T15:36:46.764Z,7.70
2023-04-12T15:39:15.027Z,4.80
2023-04-12T15:41:43.542Z,6.47
2023-04-12T15:44:13.400Z,5.10
2023-04-12T15:46:42.209Z,2.93
2023-04-12T15:49:10.818Z,3.00
2023-04-12T15:51:40.307Z,5.93
2023-04-12T15:54:08.519Z,4.60
2023-04-12T15:56:38.116Z,6.50
2023-04-12T15:59:06.296Z,4.63
2023-04-12T16:01:35.804Z,2.87
2023-04-12T16:04:05.289Z,3.53
2023-04-12T16:06:35.533Z,3.80
2023-04-12T16:09:05.682Z,2.97
2023-04-12T16:11:33.974Z,3.97
2023-04-12T16:14:02.088Z,3.93
2023-04-12T16:16:30.080Z,8.33
2023-04-12T16:19:00.495Z,4.77
2023-04-12T16:21:30.436Z,3.80
2023-04-12T16:23:58.750Z,5.60
2023-04-12T16:26:28.407Z,4.97
2023-04-12T16:28:56.850Z,6.63
2023-04-12T16:31:25.470Z,7.17
2023-04-12T16:33:53.562Z,4.63
2023-04-12T16:36:23.384Z,8.43
2023-04-12T16:38:51.251Z,5.50
2023-04-12T16:41:19.077Z,4.80
2023-04-12T16:43:52.695Z,4.53
2023-04-12T16:46:20.964Z,3.97
2023-04-12T16:48:48.917Z,4.23
2023-04-12T16:51:16.937Z,3.27
2023-04-12T16:53:45.121Z,5.10
2023-04-12T16:56:13.103Z,4.50
2023-04-12T16:58:40.885Z,6.63
2023-04-12T17:01:09.991Z,4.47
2023-04-12T17:03:37.913Z,4.23
2023-04-12T17:06:06.313Z,4.53
2023-04-12T17:08:34.102Z,2.73
2023-04-12T17:11:01.872Z,5.33
2023-04-12T17:13:30.266Z,4.53
2023-04-12T17:15:58.055Z,2.53
2023-04-12T17:18:27.434Z,3.20
2023-04-12T17:20:55.982Z,3.00
2023-04-12T17:23:24.093Z,3.47
2023-04-12T17:25:52.012Z,5.23
2023-04-12T17:28:19.856Z,3.97
2023-04-12T17:30:47.784Z,5.33
2023-04-12T17:33:18.600Z,5.20
2023-04-12T17:35:47.680Z,2.90
2023-04-12T17:38:15.677Z,5.00
2023-04-12T17:40:49.947Z,4.77
2023-04-12T17:43:17.755Z,3.80
2023-04-12T17:45:45.694Z,3.23
2023-04-12T17:48:14.921Z,2.90
2023-04-12T17:50:45.296Z,6.70
2023-04-12T17:53:14.646Z,3.83
2023-04-12T17:55:42.476Z,2.37
2023-04-12T17:58:10.308Z,3.73
2023-04-12T18:00:38.957Z,5.10
2023-04-12T18:03:07.690Z,6.70
2023-04-12T18:05:35.752Z,5.40
2023-04-12T18:08:03.561Z,1.47
2023-04-12T18:10:32.679Z,4.43
2023-04-12T18:13:01.076Z,3.10
2023-04-12T18:15:28.868Z,7.93
2023-04-12T18:17:56.750Z,3.57
2023-04-12T18:20:24.786Z,3.63
2023-04-12T18:22:52.704Z,7.37
2023-04-12T18:25:20.862Z,4.77
2023-04-12T18:27:49.938Z,4.73
2023-04-12T18:30:19.416Z,6.37
2023-04-12T18:32:47.924Z,2.30
2023-04-12T18:35:16.064Z,6.43
2023-04-12T18:37:44.093Z,6.53
2023-04-12T18:40:13.407Z,3.03
2023-04-12T18:42:41.230Z,3.40
2023-04-12T18:45:11.589Z,2.80
2023-04-12T18:47:39.987Z,7.03
2023-04-12T18:50:08.915Z,4.47
2023-04-12T18:52:37.564Z,4.53
2023-04-12T18:55:06.305Z,6.13
2023-04-12T18:57:34.286Z,5.47
2023-04-12T19:00:05.558Z,6.17
2023-04-12T19:02:35.045Z,3.03
2023-04-12T19:05:03.057Z,5.10
2023-04-12T19:07:31.022Z,3.07
2023-04-12T19:09:58.758Z,2.60
2023-04-12T19:12:27.396Z,4.13
2023-04-12T19:14:55.308Z,6.60
2023-04-12T19:17:24.923Z,7.17
2023-04-12T19:19:54.326Z,3.30
2023-04-12T19:22:22.810Z,2.00
2023-04-12T19:24:51.609Z,2.17
2023-04-12T19:27:19.595Z,1.93
2023-04-12T19:29:47.391Z,5.37
2023-04-12T19:32:15.402Z,2.97
2023-04-12T19:34:43.188Z,6.83
2023-04-12T19:37:12.331Z,3.47
2023-04-12T19:39:40.657Z,4.57
2023-04-12T19:42:08.596Z,7.70
2023-04-12T19:44:37.278Z,5.07
2023-04-12T19:47:06.766Z,1.70
2023-04-12T19:49:34.569Z,4.73
2023-04-12T19:52:04.215Z,2.40
2023-04-12T19:54:33.600Z,3.23
2023-04-12T19:57:01.400Z,3.90
2023-04-12T19:59:30.971Z,6.47
2023-04-12T20:01:59.097Z,2.63
2023-04-12T20:04:27.474Z,2.27
2023-04-12T20:06:55.577Z,2.30
2023-04-12T20:09:23.791Z,4.83
2023-04-12T20:11:53.129Z,1.93
2023-04-12T20:14:21.601Z,5.00
2023-04-12T20:16:49.864Z,1.47
2023-04-12T20:19:17.811Z,4.00
2023-04-12T20:21:47.336Z,4.10
2023-04-12T20:24:15.237Z,2.40
2023-04-12T20:26:46.365Z,1.60
2023-04-12T20:29:15.984Z,2.03
2023-04-12T20:31:47.206Z,3.03
2023-04-12T20:34:17.715Z,3.73
2023-04-12T20:36:45.621Z,2.40
2023-04-12T20:39:13.744Z,5.30
2023-04-12T20:41:46.271Z,3.70
2023-04-12T20:44:15.419Z,2.60
2023-04-12T20:46:43.711Z,2.87
2023-04-12T20:49:11.874Z,3.87
2023-04-12T20:51:40.167Z,1.10
2023-04-12T20:54:09.593Z,1.90
2023-04-12T20:56:37.829Z,2.23
2023-04-12T20:59:07.277Z,3.33
2023-04-12T21:01:36.500Z,2.90
2023-04-12T21:04:06.209Z,2.93
2023-04-12T21:06:34.626Z,2.80
2023-04-12T21:09:04.365Z,1.60
2023-04-12T21:11:32.235Z,1.93
2023-04-12T21:14:00.064Z,0.87
2023-04-12T21:16:27.926Z,0.60
2023-04-12T21:18:58.410Z,0.97
2023-04-12T21:21:27.445Z,3.77
2023-04-12T21:23:55.164Z,1.57
2023-04-12T21:26:22.926Z,1.37
2023-04-12T21:28:50.953Z,4.50
2023-04-12T21:31:18.723Z,2.13
2023-04-12T21:33:46.668Z,3.27
2023-04-12T21:36:15.811Z,4.13
2023-04-12T21:38:43.530Z,4.60
2023-04-12T21:41:13.150Z,0.67
2023-04-12T21:43:41.500Z,1.63
2023-04-12T21:46:09.618Z,0.90
2023-04-12T21:48:37.568Z,2.10
2023-04-12T21:51:05.850Z,1.20
2023-04-12T21:53:34.948Z,1.90
2023-04-12T21:56:02.659Z,2.40
2023-04-12T21:58:32.452Z,2.00
2023-04-12T22:01:00.404Z,2.70
2023-04-12T22:03:28.460Z,1.90
2023-04-12T22:06:04.241Z,2.30
2023-04-12T22:08:34.361Z,2.03
2023-04-12T22:11:02.391Z,2.33
2023-04-12T22:13:30.811Z,1.87
2023-04-12T22:16:00.724Z,2.03
2023-04-12T22:18:28.527Z,2.57
2023-04-12T22:20:57.772Z,1.83
2023-04-12T22:23:25.588Z,0.83
2023-04-12T22:25:58.563Z,0.73
2023-04-12T22:28:26.406Z,1.53
2023-04-12T22:30:54.184Z,1.73
2023-04-12T22:33:22.370Z,4.03
2023-04-12T22:35:50.535Z,2.67
2023-04-12T22:38:19.373Z,2.63
2023-04-12T22:40:47.846Z,0.77
2023-04-12T22:43:20.811Z,1.67
2023-04-12T22:45:48.668Z,1.63
2023-04-12T22:48:16.507Z,1.53
2023-04-12T22:50:45.112Z,5.40
2023-04-12T22:53:14.006Z,2.03
2023-04-12T22:55:42.225Z,1.77
2023-04-12T22:58:09.987Z,2.53
2023-04-12T23:00:39.845Z,2.87
2023-04-12T23:03:10.824Z,0.50
2023-04-12T23:05:39.011Z,1.93
2023-04-12T23:08:07.259Z,0.50
2023-04-12T23:10:34.994Z,2.70
2023-04-12T23:13:03.398Z,1.73
2023-04-12T23:15:31.691Z,1.43
